sensor_id;sensor_type;location;lat;lon;timestamp;P1;durP1;ratioP1;P2;durP2;ratioP2
76039;SDS011;64736;50.462;4.850;2022-10-31T00:01:17;18.83;;;12.00;;
76039;SDS011;64736;50.462;4.850;2022-10-31T00:03:48;18.05;;;10.95;;
76039;SDS011;64736;50.462;4.850;2022-10-31T00:06:14;20.00;;;11.88;;
76039;SDS011;64736;50.462;4.850;2022-10-31T00:11:12;17.58;;;10.63;;
76039;SDS011;64736;50.462;4.850;2022-10-31T00:13:38;15.40;;;10.10;;
76039;SDS011;64736;50.462;4.850;2022-10-31T00:16:04;15.93;;;10.50;;
76039;SDS011;64736;50.462;4.850;2022-10-31T00:18:30;11.48;;;7.63;;
76039;SDS011;64736;50.462;4.850;2022-10-31T00:21:02;11.23;;;7.47;;
76039;SDS011;64736;50.462;4.850;2022-10-31T00:23:28;13.77;;;10.10;;
76039;SDS011;64736;50.462;4.850;2022-10-31T00:25:59;15.65;;;8.27;;
76039;SDS011;64736;50.462;4.850;2022-10-31T00:28:26;9.43;;;5.45;;
76039;SDS011;64736;50.462;4.850;2022-10-31T00:30:52;9.27;;;5.50;;
76039;SDS011;64736;50.462;4.850;2022-10-31T00:33:18;10.75;;;6.22;;
76039;SDS011;64736;50.462;4.850;2022-10-31T00:35:49;9.40;;;5.22;;
76039;SDS011;64736;50.462;4.850;2022-10-31T00:38:15;11.00;;;6.05;;
76039;SDS011;64736;50.462;4.850;2022-10-31T00:40:41;9.25;;;6.30;;
76039;SDS011;64736;50.462;4.850;2022-10-31T00:43:08;12.95;;;8.63;;
76039;SDS011;64736;50.462;4.850;2022-10-31T00:45:34;16.23;;;9.95;;
76039;SDS011;64736;50.462;4.850;2022-10-31T00:47:59;16.30;;;10.98;;
76039;SDS011;64736;50.462;4.850;2022-10-31T00:50:25;15.32;;;11.57;;
76039;SDS011;64736;50.462;4.850;2022-10-31T00:52:51;14.88;;;8.20;;
76039;SDS011;64736;50.462;4.850;2022-10-31T00:55:16;12.85;;;7.85;;
76039;SDS011;64736;50.462;4.850;2022-10-31T00:57:42;12.75;;;8.40;;
76039;SDS011;64736;50.462;4.850;2022-10-31T01:00:11;13.47;;;8.13;;
76039;SDS011;64736;50.462;4.850;2022-10-31T01:02:37;12.32;;;7.30;;
76039;SDS011;64736;50.462;4.850;2022-10-31T01:05:03;9.77;;;6.55;;
76039;SDS011;64736;50.462;4.850;2022-10-31T01:07:29;10.10;;;6.68;;
76039;SDS011;64736;50.462;4.850;2022-10-31T01:09:54;9.52;;;5.75;;
76039;SDS011;64736;50.462;4.850;2022-10-31T01:12:20;10.75;;;6.82;;
76039;SDS011;64736;50.462;4.850;2022-10-31T01:14:45;10.77;;;5.97;;
76039;SDS011;64736;50.462;4.850;2022-10-31T01:17:12;11.82;;;7.13;;
76039;SDS011;64736;50.462;4.850;2022-10-31T01:19:38;10.10;;;7.38;;
76039;SDS011;64736;50.462;4.850;2022-10-31T01:22:04;12.40;;;7.13;;
76039;SDS011;64736;50.462;4.850;2022-10-31T01:24:30;11.90;;;7.10;;
76039;SDS011;64736;50.462;4.850;2022-10-31T01:26:55;14.25;;;9.27;;
76039;SDS011;64736;50.462;4.850;2022-10-31T01:29:21;12.15;;;8.50;;
76039;SDS011;64736;50.462;4.850;2022-10-31T01:31:47;16.35;;;8.25;;
76039;SDS011;64736;50.462;4.850;2022-10-31T01:34:13;12.82;;;7.97;;
76039;SDS011;64736;50.462;4.850;2022-10-31T01:36:40;11.43;;;7.38;;
76039;SDS011;64736;50.462;4.850;2022-10-31T01:39:08;13.80;;;9.77;;
76039;SDS011;64736;50.462;4.850;2022-10-31T01:46:43;12.38;;;8.40;;
76039;SDS011;64736;50.462;4.850;2022-10-31T01:52:32;12.60;;;8.20;;
76039;SDS011;64736;50.462;4.850;2022-10-31T01:55:23;13.27;;;7.10;;
76039;SDS011;64736;50.462;4.850;2022-10-31T01:58:07;13.18;;;9.00;;
76039;SDS011;64736;50.462;4.850;2022-10-31T02:00:35;15.75;;;9.85;;
76039;SDS011;64736;50.462;4.850;2022-10-31T02:03:02;11.77;;;8.02;;
76039;SDS011;64736;50.462;4.850;2022-10-31T02:05:28;15.25;;;9.23;;
76039;SDS011;64736;50.462;4.850;2022-10-31T02:07:57;14.55;;;9.55;;
76039;SDS011;64736;50.462;4.850;2022-10-31T02:10:38;10.20;;;6.65;;
76039;SDS011;64736;50.462;4.850;2022-10-31T02:13:06;12.30;;;6.80;;
76039;SDS011;64736;50.462;4.850;2022-10-31T02:15:33;9.77;;;6.55;;
76039;SDS011;64736;50.462;4.850;2022-10-31T02:18:00;9.75;;;6.50;;
76039;SDS011;64736;50.462;4.850;2022-10-31T02:20:27;13.43;;;6.68;;
76039;SDS011;64736;50.462;4.850;2022-10-31T02:29:03;16.40;;;10.45;;
76039;SDS011;64736;50.462;4.850;2022-10-31T02:34:32;10.88;;;6.30;;
76039;SDS011;64736;50.462;4.850;2022-10-31T02:37:25;13.48;;;8.15;;
76039;SDS011;64736;50.462;4.850;2022-10-31T02:40:18;13.40;;;8.52;;
76039;SDS011;64736;50.462;4.850;2022-10-31T02:43:06;14.30;;;8.40;;
76039;SDS011;64736;50.462;4.850;2022-10-31T02:48:45;12.43;;;7.50;;
76039;SDS011;64736;50.462;4.850;2022-10-31T02:51:13;13.15;;;8.52;;
76039;SDS011;64736;50.462;4.850;2022-10-31T02:53:40;12.60;;;7.70;;
76039;SDS011;64736;50.462;4.850;2022-10-31T02:56:08;12.57;;;8.82;;
76039;SDS011;64736;50.462;4.850;2022-10-31T02:59:00;16.05;;;9.88;;
76039;SDS011;64736;50.462;4.850;2022-10-31T03:01:53;17.52;;;11.77;;
76039;SDS011;64736;50.462;4.850;2022-10-31T03:07:21;12.15;;;8.52;;
76039;SDS011;64736;50.462;4.850;2022-10-31T03:12:54;12.15;;;8.65;;
76039;SDS011;64736;50.462;4.850;2022-10-31T03:17:58;15.20;;;9.70;;
76039;SDS011;64736;50.462;4.850;2022-10-31T03:23:23;14.52;;;8.43;;
76039;SDS011;64736;50.462;4.850;2022-10-31T03:25:50;13.88;;;9.60;;
76039;SDS011;64736;50.462;4.850;2022-10-31T03:28:20;10.55;;;7.43;;
76039;SDS011;64736;50.462;4.850;2022-10-31T03:30:52;13.32;;;8.38;;
76039;SDS011;64736;50.462;4.850;2022-10-31T03:33:21;10.80;;;7.90;;
76039;SDS011;64736;50.462;4.850;2022-10-31T03:35:54;12.02;;;8.35;;
76039;SDS011;64736;50.462;4.850;2022-10-31T03:38:22;13.20;;;8.38;;
76039;SDS011;64736;50.462;4.850;2022-10-31T03:40:48;15.88;;;9.65;;
76039;SDS011;64736;50.462;4.850;2022-10-31T03:43:19;14.82;;;8.65;;
76039;SDS011;64736;50.462;4.850;2022-10-31T03:45:51;13.23;;;9.43;;
76039;SDS011;64736;50.462;4.850;2022-10-31T03:48:18;15.02;;;7.80;;
76039;SDS011;64736;50.462;4.850;2022-10-31T03:53:23;12.23;;;7.68;;
76039;SDS011;64736;50.462;4.850;2022-10-31T03:55:56;13.05;;;7.72;;
76039;SDS011;64736;50.462;4.850;2022-10-31T03:58:28;17.38;;;9.52;;
76039;SDS011;64736;50.462;4.850;2022-10-31T04:01:05;11.25;;;7.18;;
76039;SDS011;64736;50.462;4.850;2022-10-31T04:03:35;10.23;;;7.50;;
76039;SDS011;64736;50.462;4.850;2022-10-31T04:06:04;16.17;;;9.02;;
76039;SDS011;64736;50.462;4.850;2022-10-31T04:08:33;15.50;;;7.10;;
76039;SDS011;64736;50.462;4.850;2022-10-31T04:11:05;12.27;;;7.05;;
76039;SDS011;64736;50.462;4.850;2022-10-31T04:13:34;11.60;;;7.25;;
76039;SDS011;64736;50.462;4.850;2022-10-31T04:16:04;12.57;;;7.82;;
76039;SDS011;64736;50.462;4.850;2022-10-31T04:18:32;13.55;;;8.30;;
76039;SDS011;64736;50.462;4.850;2022-10-31T04:20:59;13.20;;;8.48;;
76039;SDS011;64736;50.462;4.850;2022-10-31T04:23:27;10.60;;;6.85;;
76039;SDS011;64736;50.462;4.850;2022-10-31T04:25:53;11.77;;;7.13;;
76039;SDS011;64736;50.462;4.850;2022-10-31T04:28:19;12.90;;;8.18;;
76039;SDS011;64736;50.462;4.850;2022-10-31T04:30:44;17.83;;;10.38;;
76039;SDS011;64736;50.462;4.850;2022-10-31T04:33:10;11.20;;;8.20;;
76039;SDS011;64736;50.462;4.850;2022-10-31T04:35:36;10.70;;;7.47;;
76039;SDS011;64736;50.462;4.850;2022-10-31T04:38:01;12.30;;;7.90;;
76039;SDS011;64736;50.462;4.850;2022-10-31T04:40:27;16.42;;;10.00;;
76039;SDS011;64736;50.462;4.850;2022-10-31T04:42:53;14.77;;;9.95;;
76039;SDS011;64736;50.462;4.850;2022-10-31T04:45:19;17.05;;;10.93;;
76039;SDS011;64736;50.462;4.850;2022-10-31T04:47:45;18.70;;;12.18;;
76039;SDS011;64736;50.462;4.850;2022-10-31T04:50:10;18.50;;;12.45;;
76039;SDS011;64736;50.462;4.850;2022-10-31T04:52:40;22.98;;;13.02;;
76039;SDS011;64736;50.462;4.850;2022-10-31T04:55:06;21.17;;;12.20;;
76039;SDS011;64736;50.462;4.850;2022-10-31T04:57:32;19.80;;;12.23;;
76039;SDS011;64736;50.462;4.850;2022-10-31T05:00:05;20.25;;;13.60;;
76039;SDS011;64736;50.462;4.850;2022-10-31T05:02:32;19.10;;;12.82;;
76039;SDS011;64736;50.462;4.850;2022-10-31T05:04:57;19.83;;;12.32;;
76039;SDS011;64736;50.462;4.850;2022-10-31T05:07:23;19.65;;;12.25;;
76039;SDS011;64736;50.462;4.850;2022-10-31T05:09:48;18.15;;;13.32;;
76039;SDS011;64736;50.462;4.850;2022-10-31T05:12:14;17.80;;;10.60;;
76039;SDS011;64736;50.462;4.850;2022-10-31T05:14:40;15.77;;;10.80;;
76039;SDS011;64736;50.462;4.850;2022-10-31T05:17:06;19.27;;;10.25;;
76039;SDS011;64736;50.462;4.850;2022-10-31T05:19:31;17.27;;;9.63;;
76039;SDS011;64736;50.462;4.850;2022-10-31T05:21:57;16.20;;;10.45;;
76039;SDS011;64736;50.462;4.850;2022-10-31T05:24:23;16.42;;;11.40;;
76039;SDS011;64736;50.462;4.850;2022-10-31T05:26:49;16.17;;;8.88;;
76039;SDS011;64736;50.462;4.850;2022-10-31T05:29:14;11.15;;;7.97;;
76039;SDS011;64736;50.462;4.850;2022-10-31T05:31:40;10.15;;;7.40;;
76039;SDS011;64736;50.462;4.850;2022-10-31T05:34:06;13.93;;;8.95;;
76039;SDS011;64736;50.462;4.850;2022-10-31T05:36:31;15.18;;;7.90;;
76039;SDS011;64736;50.462;4.850;2022-10-31T05:38:57;14.50;;;7.55;;
76039;SDS011;64736;50.462;4.850;2022-10-31T05:41:23;12.05;;;8.10;;
76039;SDS011;64736;50.462;4.850;2022-10-31T05:43:48;14.95;;;10.73;;
76039;SDS011;64736;50.462;4.850;2022-10-31T05:46:14;12.85;;;9.48;;
76039;SDS011;64736;50.462;4.850;2022-10-31T05:48:40;17.55;;;10.02;;
76039;SDS011;64736;50.462;4.850;2022-10-31T05:51:06;16.27;;;9.27;;
76039;SDS011;64736;50.462;4.850;2022-10-31T05:53:31;13.98;;;9.55;;
76039;SDS011;64736;50.462;4.850;2022-10-31T05:55:57;16.20;;;9.43;;
76039;SDS011;64736;50.462;4.850;2022-10-31T05:58:23;14.25;;;8.60;;
76039;SDS011;64736;50.462;4.850;2022-10-31T06:00:48;15.73;;;10.80;;
76039;SDS011;64736;50.462;4.850;2022-10-31T06:03:14;14.27;;;10.98;;
76039;SDS011;64736;50.462;4.850;2022-10-31T06:05:40;16.65;;;9.05;;
76039;SDS011;64736;50.462;4.850;2022-10-31T06:08:05;11.18;;;7.18;;
76039;SDS011;64736;50.462;4.850;2022-10-31T06:10:31;16.48;;;9.40;;
76039;SDS011;64736;50.462;4.850;2022-10-31T06:12:57;15.77;;;8.75;;
76039;SDS011;64736;50.462;4.850;2022-10-31T06:15:23;13.80;;;7.45;;
76039;SDS011;64736;50.462;4.850;2022-10-31T06:17:56;12.70;;;7.70;;
76039;SDS011;64736;50.462;4.850;2022-10-31T06:20:23;15.20;;;10.38;;
76039;SDS011;64736;50.462;4.850;2022-10-31T06:22:49;12.57;;;7.20;;
76039;SDS011;64736;50.462;4.850;2022-10-31T06:25:15;18.05;;;11.15;;
76039;SDS011;64736;50.462;4.850;2022-10-31T06:27:41;16.20;;;11.43;;
76039;SDS011;64736;50.462;4.850;2022-10-31T06:30:06;20.45;;;12.95;;
76039;SDS011;64736;50.462;4.850;2022-10-31T06:32:33;17.65;;;13.07;;
76039;SDS011;64736;50.462;4.850;2022-10-31T06:34:58;21.73;;;13.43;;
76039;SDS011;64736;50.462;4.850;2022-10-31T06:37:24;21.67;;;13.63;;
76039;SDS011;64736;50.462;4.850;2022-10-31T06:39:50;17.63;;;11.95;;
76039;SDS011;64736;50.462;4.850;2022-10-31T06:42:16;17.63;;;10.70;;
76039;SDS011;64736;50.462;4.850;2022-10-31T06:44:41;15.85;;;10.95;;
76039;SDS011;64736;50.462;4.850;2022-10-31T06:47:07;13.77;;;9.50;;
76039;SDS011;64736;50.462;4.850;2022-10-31T06:49:33;17.25;;;10.80;;
76039;SDS011;64736;50.462;4.850;2022-10-31T06:51:58;19.70;;;12.15;;
76039;SDS011;64736;50.462;4.850;2022-10-31T06:54:24;15.50;;;10.73;;
76039;SDS011;64736;50.462;4.850;2022-10-31T06:56:50;12.15;;;8.40;;
76039;SDS011;64736;50.462;4.850;2022-10-31T06:59:15;13.55;;;8.80;;
76039;SDS011;64736;50.462;4.850;2022-10-31T07:01:41;19.15;;;12.02;;
76039;SDS011;64736;50.462;4.850;2022-10-31T07:04:08;20.52;;;12.85;;
76039;SDS011;64736;50.462;4.850;2022-10-31T07:06:35;17.27;;;12.45;;
76039;SDS011;64736;50.462;4.850;2022-10-31T07:09:01;20.95;;;12.98;;
76039;SDS011;64736;50.462;4.850;2022-10-31T07:11:27;20.88;;;13.45;;
76039;SDS011;64736;50.462;4.850;2022-10-31T07:13:52;18.58;;;12.57;;
76039;SDS011;64736;50.462;4.850;2022-10-31T07:16:18;19.02;;;12.93;;
76039;SDS011;64736;50.462;4.850;2022-10-31T07:18:43;19.75;;;13.13;;
76039;SDS011;64736;50.462;4.850;2022-10-31T07:21:09;19.88;;;13.98;;
76039;SDS011;64736;50.462;4.850;2022-10-31T07:23:34;18.38;;;13.23;;
76039;SDS011;64736;50.462;4.850;2022-10-31T07:26:00;22.15;;;13.40;;
76039;SDS011;64736;50.462;4.850;2022-10-31T07:28:26;18.00;;;13.10;;
76039;SDS011;64736;50.462;4.850;2022-10-31T07:30:53;20.98;;;13.85;;
76039;SDS011;64736;50.462;4.850;2022-10-31T07:33:20;23.50;;;14.23;;
76039;SDS011;64736;50.462;4.850;2022-10-31T07:35:46;19.45;;;11.65;;
76039;SDS011;64736;50.462;4.850;2022-10-31T07:38:12;21.40;;;11.70;;
76039;SDS011;64736;50.462;4.850;2022-10-31T07:40:39;27.95;;;14.13;;
76039;SDS011;64736;50.462;4.850;2022-10-31T07:43:05;21.95;;;12.98;;
76039;SDS011;64736;50.462;4.850;2022-10-31T07:45:31;19.65;;;12.23;;
76039;SDS011;64736;50.462;4.850;2022-10-31T07:47:56;18.00;;;11.45;;
76039;SDS011;64736;50.462;4.850;2022-10-31T07:50:28;19.48;;;11.57;;
76039;SDS011;64736;50.462;4.850;2022-10-31T07:53:06;18.13;;;12.38;;
76039;SDS011;64736;50.462;4.850;2022-10-31T07:55:33;18.17;;;11.65;;
76039;SDS011;64736;50.462;4.850;2022-10-31T07:58:01;19.38;;;11.88;;
76039;SDS011;64736;50.462;4.850;2022-10-31T08:00:28;16.33;;;10.30;;
76039;SDS011;64736;50.462;4.850;2022-10-31T08:02:58;17.88;;;11.60;;
76039;SDS011;64736;50.462;4.850;2022-10-31T08:05:24;18.40;;;12.13;;
76039;SDS011;64736;50.462;4.850;2022-10-31T08:07:50;21.38;;;12.30;;
76039;SDS011;64736;50.462;4.850;2022-10-31T08:10:15;16.15;;;11.75;;
76039;SDS011;64736;50.462;4.850;2022-10-31T08:12:41;18.65;;;11.43;;
76039;SDS011;64736;50.462;4.850;2022-10-31T08:15:06;21.40;;;11.77;;
76039;SDS011;64736;50.462;4.850;2022-10-31T08:17:34;19.35;;;12.57;;
76039;SDS011;64736;50.462;4.850;2022-10-31T08:20:02;16.02;;;11.90;;
76039;SDS011;64736;50.462;4.850;2022-10-31T08:22:28;20.13;;;12.27;;
76039;SDS011;64736;50.462;4.850;2022-10-31T08:24:54;18.02;;;11.60;;
76039;SDS011;64736;50.462;4.850;2022-10-31T08:27:20;18.63;;;12.85;;
76039;SDS011;64736;50.462;4.850;2022-10-31T08:29:45;19.23;;;12.18;;
76039;SDS011;64736;50.462;4.850;2022-10-31T08:32:11;22.25;;;12.32;;
76039;SDS011;64736;50.462;4.850;2022-10-31T08:34:36;16.65;;;11.30;;
76039;SDS011;64736;50.462;4.850;2022-10-31T08:37:02;21.60;;;11.73;;
76039;SDS011;64736;50.462;4.850;2022-10-31T08:39:28;18.08;;;12.55;;
76039;SDS011;64736;50.462;4.850;2022-10-31T08:41:53;17.50;;;11.70;;
76039;SDS011;64736;50.462;4.850;2022-10-31T08:44:19;18.45;;;11.73;;
76039;SDS011;64736;50.462;4.850;2022-10-31T08:46:44;16.17;;;11.13;;
76039;SDS011;64736;50.462;4.850;2022-10-31T08:49:10;19.63;;;12.10;;
76039;SDS011;64736;50.462;4.850;2022-10-31T08:51:36;17.70;;;10.45;;
76039;SDS011;64736;50.462;4.850;2022-10-31T08:54:02;15.75;;;9.93;;
76039;SDS011;64736;50.462;4.850;2022-10-31T08:56:27;16.85;;;9.48;;
76039;SDS011;64736;50.462;4.850;2022-10-31T08:58:53;14.15;;;9.68;;
76039;SDS011;64736;50.462;4.850;2022-10-31T09:01:19;14.30;;;9.57;;
76039;SDS011;64736;50.462;4.850;2022-10-31T09:03:44;16.77;;;10.68;;
76039;SDS011;64736;50.462;4.850;2022-10-31T09:06:10;15.38;;;9.35;;
76039;SDS011;64736;50.462;4.850;2022-10-31T09:08:36;15.30;;;8.98;;
76039;SDS011;64736;50.462;4.850;2022-10-31T09:11:02;15.68;;;9.63;;
76039;SDS011;64736;50.462;4.850;2022-10-31T09:13:28;16.20;;;9.25;;
76039;SDS011;64736;50.462;4.850;2022-10-31T09:15:55;15.52;;;9.48;;
76039;SDS011;64736;50.462;4.850;2022-10-31T09:18:22;15.38;;;9.93;;
76039;SDS011;64736;50.462;4.850;2022-10-31T09:20:49;15.43;;;10.55;;
76039;SDS011;64736;50.462;4.850;2022-10-31T09:23:16;17.45;;;9.85;;
76039;SDS011;64736;50.462;4.850;2022-10-31T09:25:44;13.25;;;9.23;;
76039;SDS011;64736;50.462;4.850;2022-10-31T09:28:11;13.27;;;8.60;;
76039;SDS011;64736;50.462;4.850;2022-10-31T09:30:39;13.95;;;8.63;;
76039;SDS011;64736;50.462;4.850;2022-10-31T09:33:12;18.20;;;9.82;;
76039;SDS011;64736;50.462;4.850;2022-10-31T09:35:38;14.88;;;10.60;;
76039;SDS011;64736;50.462;4.850;2022-10-31T09:38:15;15.50;;;8.80;;
76039;SDS011;64736;50.462;4.850;2022-10-31T09:41:27;15.00;;;9.35;;
76039;SDS011;64736;50.462;4.850;2022-10-31T09:50:11;14.18;;;9.13;;
76039;SDS011;64736;50.462;4.850;2022-10-31T09:52:41;18.13;;;9.60;;
76039;SDS011;64736;50.462;4.850;2022-10-31T09:55:17;14.10;;;9.68;;
76039;SDS011;64736;50.462;4.850;2022-10-31T09:57:46;13.93;;;8.82;;
76039;SDS011;64736;50.462;4.850;2022-10-31T10:00:17;12.68;;;8.45;;
76039;SDS011;64736;50.462;4.850;2022-10-31T10:05:18;14.23;;;9.82;;
76039;SDS011;64736;50.462;4.850;2022-10-31T10:10:36;14.90;;;8.32;;
76039;SDS011;64736;50.462;4.850;2022-10-31T10:19:01;11.60;;;6.78;;
76039;SDS011;64736;50.462;4.850;2022-10-31T10:24:18;14.10;;;8.57;;
76039;SDS011;64736;50.462;4.850;2022-10-31T10:27:00;19.58;;;13.13;;
76039;SDS011;64736;50.462;4.850;2022-10-31T10:29:39;19.92;;;9.32;;
76039;SDS011;64736;50.462;4.850;2022-10-31T10:32:13;15.73;;;9.93;;
76039;SDS011;64736;50.462;4.850;2022-10-31T10:34:47;16.67;;;9.35;;
76039;SDS011;64736;50.462;4.850;2022-10-31T10:39:51;16.75;;;11.75;;
76039;SDS011;64736;50.462;4.850;2022-10-31T10:42:20;15.45;;;8.43;;
76039;SDS011;64736;50.462;4.850;2022-10-31T10:45:16;15.00;;;8.43;;
76039;SDS011;64736;50.462;4.850;2022-10-31T10:48:14;10.38;;;7.72;;
76039;SDS011;64736;50.462;4.850;2022-10-31T10:50:48;12.05;;;8.05;;
76039;SDS011;64736;50.462;4.850;2022-10-31T10:58:32;12.65;;;9.30;;
76039;SDS011;64736;50.462;4.850;2022-10-31T11:00:58;13.65;;;8.82;;
76039;SDS011;64736;50.462;4.850;2022-10-31T11:03:24;12.65;;;7.88;;
76039;SDS011;64736;50.462;4.850;2022-10-31T11:05:51;11.65;;;8.98;;
76039;SDS011;64736;50.462;4.850;2022-10-31T11:08:31;13.82;;;7.50;;
76039;SDS011;64736;50.462;4.850;2022-10-31T11:11:05;17.23;;;12.73;;
76039;SDS011;64736;50.462;4.850;2022-10-31T11:13:52;12.90;;;9.73;;
76039;SDS011;64736;50.462;4.850;2022-10-31T11:18:50;20.02;;;17.95;;
76039;SDS011;64736;50.462;4.850;2022-10-31T11:21:28;14.63;;;13.02;;
76039;SDS011;64736;50.462;4.850;2022-10-31T11:26:39;17.20;;;9.60;;
76039;SDS011;64736;50.462;4.850;2022-10-31T11:31:38;9.07;;;6.28;;
76039;SDS011;64736;50.462;4.850;2022-10-31T11:34:05;12.05;;;6.97;;
76039;SDS011;64736;50.462;4.850;2022-10-31T11:36:39;16.80;;;7.47;;
76039;SDS011;64736;50.462;4.850;2022-10-31T11:39:16;10.05;;;5.88;;
76039;SDS011;64736;50.462;4.850;2022-10-31T11:41:45;17.88;;;15.48;;
76039;SDS011;64736;50.462;4.850;2022-10-31T11:44:33;15.13;;;5.88;;
76039;SDS011;64736;50.462;4.850;2022-10-31T11:47:02;12.43;;;7.25;;
76039;SDS011;64736;50.462;4.850;2022-10-31T12:00:31;10.63;;;6.55;;
76039;SDS011;64736;50.462;4.850;2022-10-31T12:05:37;11.48;;;6.55;;
76039;SDS011;64736;50.462;4.850;2022-10-31T12:08:06;12.00;;;7.50;;
76039;SDS011;64736;50.462;4.850;2022-10-31T12:10:39;11.60;;;5.53;;
76039;SDS011;64736;50.462;4.850;2022-10-31T12:16:00;12.95;;;6.10;;
76039;SDS011;64736;50.462;4.850;2022-10-31T22:17:17;8.88;;;4.55;;
76039;SDS011;64736;50.462;4.850;2022-10-31T22:19:42;9.27;;;4.68;;
76039;SDS011;64736;50.462;4.850;2022-10-31T22:22:09;5.65;;;3.05;;
76039;SDS011;64736;50.462;4.850;2022-10-31T22:24:36;5.45;;;2.47;;
76039;SDS011;64736;50.462;4.850;2022-10-31T22:27:02;5.63;;;2.00;;
76039;SDS011;64736;50.462;4.850;2022-10-31T22:29:27;4.78;;;2.35;;
76039;SDS011;64736;50.462;4.850;2022-10-31T22:31:53;8.23;;;4.18;;
76039;SDS011;64736;50.462;4.850;2022-10-31T22:34:18;9.50;;;4.30;;
76039;SDS011;64736;50.462;4.850;2022-10-31T22:36:44;8.02;;;4.60;;
76039;SDS011;64736;50.462;4.850;2022-10-31T22:39:11;8.63;;;4.18;;
76039;SDS011;64736;50.462;4.850;2022-10-31T22:41:37;11.18;;;4.32;;
76039;SDS011;64736;50.462;4.850;2022-10-31T22:44:03;8.57;;;4.28;;
76039;SDS011;64736;50.462;4.850;2022-10-31T22:46:33;7.80;;;4.35;;
76039;SDS011;64736;50.462;4.850;2022-10-31T22:49:02;9.65;;;4.53;;
76039;SDS011;64736;50.462;4.850;2022-10-31T22:51:34;9.75;;;4.30;;
76039;SDS011;64736;50.462;4.850;2022-10-31T22:54:02;10.65;;;4.68;;
76039;SDS011;64736;50.462;4.850;2022-10-31T22:56:29;7.85;;;4.40;;
76039;SDS011;64736;50.462;4.850;2022-10-31T22:58:56;8.23;;;4.25;;
76039;SDS011;64736;50.462;4.850;2022-10-31T23:01:24;8.85;;;3.90;;
76039;SDS011;64736;50.462;4.850;2022-10-31T23:03:52;8.60;;;4.53;;
76039;SDS011;64736;50.462;4.850;2022-10-31T23:06:19;9.07;;;4.65;;
76039;SDS011;64736;50.462;4.850;2022-10-31T23:08:47;8.20;;;5.13;;
76039;SDS011;64736;50.462;4.850;2022-10-31T23:13:40;10.45;;;5.75;;
76039;SDS011;64736;50.462;4.850;2022-10-31T23:16:24;8.88;;;4.70;;
76039;SDS011;64736;50.462;4.850;2022-10-31T23:18:49;9.45;;;5.07;;
76039;SDS011;64736;50.462;4.850;2022-10-31T23:21:15;9.35;;;5.10;;
76039;SDS011;64736;50.462;4.850;2022-10-31T23:24:01;8.77;;;4.28;;
76039;SDS011;64736;50.462;4.850;2022-10-31T23:26:27;16.38;;;6.13;;
76039;SDS011;64736;50.462;4.850;2022-10-31T23:29:11;9.65;;;5.00;;
76039;SDS011;64736;50.462;4.850;2022-10-31T23:31:36;10.75;;;4.80;;
76039;SDS011;64736;50.462;4.850;2022-10-31T23:34:02;7.97;;;4.43;;
76039;SDS011;64736;50.462;4.850;2022-10-31T23:36:28;10.30;;;4.80;;
76039;SDS011;64736;50.462;4.850;2022-10-31T23:38:54;11.18;;;5.70;;
76039;SDS011;64736;50.462;4.850;2022-10-31T23:41:19;9.95;;;6.32;;
76039;SDS011;64736;50.462;4.850;2022-10-31T23:43:45;10.52;;;4.90;;
76039;SDS011;64736;50.462;4.850;2022-10-31T23:46:12;11.45;;;5.00;;
76039;SDS011;64736;50.462;4.850;2022-10-31T23:48:38;7.80;;;4.45;;
76039;SDS011;64736;50.462;4.850;2022-10-31T23:51:04;9.32;;;5.40;;
76039;SDS011;64736;50.462;4.850;2022-10-31T23:53:30;11.20;;;4.82;;
76039;SDS011;64736;50.462;4.850;2022-10-31T23:55:55;6.68;;;3.92;;
76039;SDS011;64736;50.462;4.850;2022-10-31T23:58:21;8.38;;;4.43;;
